sensor_id;sensor_type;location;lat;lon;timestamp;temperature;humidity
65972;SHT31;52726;48.852;9.152;2023-09-12T00:00:50;17.85;85.64
65972;SHT31;52726;48.852;9.152;2023-09-12T00:03:19;17.84;85.85
65972;SHT31;52726;48.852;9.152;2023-09-12T00:05:55;17.82;85.65
65972;SHT31;52726;48.852;9.152;2023-09-12T00:08:21;17.82;85.88
65972;SHT31;52726;48.852;9.152;2023-09-12T00:10:57;17.87;86.06
65972;SHT31;52726;48.852;9.152;2023-09-12T00:13:26;17.87;86.87
65972;SHT31;52726;48.852;9.152;2023-09-12T00:15:52;17.84;87.25
65972;SHT31;52726;48.852;9.152;2023-09-12T00:18:17;17.78;87.17
65972;SHT31;52726;48.852;9.152;2023-09-12T00:20:42;17.77;87.22
65972;SHT31;52726;48.852;9.152;2023-09-12T00:23:08;17.73;87.23
65972;SHT31;52726;48.852;9.152;2023-09-12T00:25:33;17.70;87.20
65972;SHT31;52726;48.852;9.152;2023-09-12T00:27:58;17.64;87.30
65972;SHT31;52726;48.852;9.152;2023-09-12T00:30:23;17.62;87.05
65972;SHT31;52726;48.852;9.152;2023-09-12T00:32:49;17.62;87.31
65972;SHT31;52726;48.852;9.152;2023-09-12T00:35:14;17.66;87.54
65972;SHT31;52726;48.852;9.152;2023-09-12T00:37:39;17.70;87.98
65972;SHT31;52726;48.852;9.152;2023-09-12T00:40:05;17.69;87.96
65972;SHT31;52726;48.852;9.152;2023-09-12T00:42:31;17.67;87.94
65972;SHT31;52726;48.852;9.152;2023-09-12T00:44:56;17.66;87.96
65972;SHT31;52726;48.852;9.152;2023-09-12T00:47:22;17.57;88.00
65972;SHT31;52726;48.852;9.152;2023-09-12T00:49:49;17.50;88.18
65972;SHT31;52726;48.852;9.152;2023-09-12T00:52:15;17.40;88.39
65972;SHT31;52726;48.852;9.152;2023-09-12T00:54:42;17.37;88.63
65972;SHT31;52726;48.852;9.152;2023-09-12T00:57:07;17.35;89.04
65972;SHT31;52726;48.852;9.152;2023-09-12T00:59:32;17.32;88.58
65972;SHT31;52726;48.852;9.152;2023-09-12T01:01:59;17.35;88.25
65972;SHT31;52726;48.852;9.152;2023-09-12T01:04:25;17.36;88.07
65972;SHT31;52726;48.852;9.152;2023-09-12T01:06:51;17.37;88.39
65972;SHT31;52726;48.852;9.152;2023-09-12T01:09:17;17.36;88.44
65972;SHT31;52726;48.852;9.152;2023-09-12T01:11:42;17.37;88.15
65972;SHT31;52726;48.852;9.152;2023-09-12T01:14:08;17.35;88.58
65972;SHT31;52726;48.852;9.152;2023-09-12T01:16:34;17.32;88.45
65972;SHT31;52726;48.852;9.152;2023-09-12T01:18:59;17.26;88.31
65972;SHT31;52726;48.852;9.152;2023-09-12T01:24:28;17.26;87.89
65972;SHT31;52726;48.852;9.152;2023-09-12T01:29:44;17.27;88.32
65972;SHT31;52726;48.852;9.152;2023-09-12T01:32:12;17.33;88.92
65972;SHT31;52726;48.852;9.152;2023-09-12T01:34:39;17.35;89.24
65972;SHT31;52726;48.852;9.152;2023-09-12T01:37:04;17.36;89.26
65972;SHT31;52726;48.852;9.152;2023-09-12T01:39:29;17.36;89.35
65972;SHT31;52726;48.852;9.152;2023-09-12T01:41:56;17.35;89.12
65972;SHT31;52726;48.852;9.152;2023-09-12T01:44:24;17.33;88.83
65972;SHT31;52726;48.852;9.152;2023-09-12T01:46:51;17.26;88.82
65972;SHT31;52726;48.852;9.152;2023-09-12T01:49:19;17.26;88.94
65972;SHT31;52726;48.852;9.152;2023-09-12T01:51:46;17.22;88.87
65972;SHT31;52726;48.852;9.152;2023-09-12T01:54:11;17.20;89.18
65972;SHT31;52726;48.852;9.152;2023-09-12T01:56:38;17.20;88.79
65972;SHT31;52726;48.852;9.152;2023-09-12T01:59:04;17.19;88.94
65972;SHT31;52726;48.852;9.152;2023-09-12T02:01:29;17.19;89.02
65972;SHT31;52726;48.852;9.152;2023-09-12T02:03:55;17.09;88.61
65972;SHT31;52726;48.852;9.152;2023-09-12T02:06:20;17.06;88.76
65972;SHT31;52726;48.852;9.152;2023-09-12T02:08:45;17.02;89.05
65972;SHT31;52726;48.852;9.152;2023-09-12T02:11:10;17.08;88.97
65972;SHT31;52726;48.852;9.152;2023-09-12T02:13:36;17.12;89.46
65972;SHT31;52726;48.852;9.152;2023-09-12T02:16:01;17.18;89.23
65972;SHT31;52726;48.852;9.152;2023-09-12T02:18:28;17.22;89.11
65972;SHT31;52726;48.852;9.152;2023-09-12T02:20:53;17.33;89.35
65972;SHT31;52726;48.852;9.152;2023-09-12T02:23:19;17.36;89.03
65972;SHT31;52726;48.852;9.152;2023-09-12T02:25:44;17.43;89.01
65972;SHT31;52726;48.852;9.152;2023-09-12T02:28:09;17.49;89.01
65972;SHT31;52726;48.852;9.152;2023-09-12T02:30:38;17.50;88.19
65972;SHT31;52726;48.852;9.152;2023-09-12T02:33:04;17.51;88.34
65972;SHT31;52726;48.852;9.152;2023-09-12T02:35:29;17.57;88.27
65972;SHT31;52726;48.852;9.152;2023-09-12T02:37:54;17.62;88.13
65972;SHT31;52726;48.852;9.152;2023-09-12T02:40:19;17.60;87.61
65972;SHT31;52726;48.852;9.152;2023-09-12T02:42:45;17.66;87.73
65972;SHT31;52726;48.852;9.152;2023-09-12T02:45:10;17.66;87.91
65972;SHT31;52726;48.852;9.152;2023-09-12T02:47:35;17.66;88.02
65972;SHT31;52726;48.852;9.152;2023-09-12T02:50:01;17.66;88.06
65972;SHT31;52726;48.852;9.152;2023-09-12T02:52:26;17.57;87.80
65972;SHT31;52726;48.852;9.152;2023-09-12T02:54:51;17.53;87.93
65972;SHT31;52726;48.852;9.152;2023-09-12T02:57:17;17.47;88.20
65972;SHT31;52726;48.852;9.152;2023-09-12T02:59:42;17.46;88.31
65972;SHT31;52726;48.852;9.152;2023-09-12T03:02:07;17.46;87.87
65972;SHT31;52726;48.852;9.152;2023-09-12T03:04:35;17.43;88.19
65972;SHT31;52726;48.852;9.152;2023-09-12T03:07:00;17.35;88.67
65972;SHT31;52726;48.852;9.152;2023-09-12T03:09:25;17.30;88.94
65972;SHT31;52726;48.852;9.152;2023-09-12T03:11:51;17.25;89.21
65972;SHT31;52726;48.852;9.152;2023-09-12T03:14:16;17.16;89.30
65972;SHT31;52726;48.852;9.152;2023-09-12T03:16:41;17.15;89.60
65972;SHT31;52726;48.852;9.152;2023-09-12T03:19:07;17.08;89.72
65972;SHT31;52726;48.852;9.152;2023-09-12T03:21:32;17.04;89.68
65972;SHT31;52726;48.852;9.152;2023-09-12T03:23:57;16.98;89.88
65972;SHT31;52726;48.852;9.152;2023-09-12T03:26:22;16.91;89.40
65972;SHT31;52726;48.852;9.152;2023-09-12T03:28:49;16.92;89.60
65972;SHT31;52726;48.852;9.152;2023-09-12T03:31:15;16.92;89.52
65972;SHT31;52726;48.852;9.152;2023-09-12T03:33:41;16.95;90.09
65972;SHT31;52726;48.852;9.152;2023-09-12T03:36:08;16.95;89.91
65972;SHT31;52726;48.852;9.152;2023-09-12T03:38:34;17.02;89.80
65972;SHT31;52726;48.852;9.152;2023-09-12T03:40:59;17.14;89.59
65972;SHT31;52726;48.852;9.152;2023-09-12T03:43:25;17.11;89.64
65972;SHT31;52726;48.852;9.152;2023-09-12T03:45:50;17.12;89.54
65972;SHT31;52726;48.852;9.152;2023-09-12T03:48:16;17.14;89.25
65972;SHT31;52726;48.852;9.152;2023-09-12T03:50:41;17.11;89.24
65972;SHT31;52726;48.852;9.152;2023-09-12T03:53:06;17.14;89.12
65972;SHT31;52726;48.852;9.152;2023-09-12T03:55:32;17.18;88.75
65972;SHT31;52726;48.852;9.152;2023-09-12T03:57:57;17.20;88.85
65972;SHT31;52726;48.852;9.152;2023-09-12T04:00:22;17.22;88.80
65972;SHT31;52726;48.852;9.152;2023-09-12T04:02:48;17.20;88.66
65972;SHT31;52726;48.852;9.152;2023-09-12T04:05:14;17.19;88.63
65972;SHT31;52726;48.852;9.152;2023-09-12T04:07:39;17.23;88.61
65972;SHT31;52726;48.852;9.152;2023-09-12T04:10:05;17.23;88.74
65972;SHT31;52726;48.852;9.152;2023-09-12T04:12:30;17.23;88.80
65972;SHT31;52726;48.852;9.152;2023-09-12T04:14:56;17.22;88.57
65972;SHT31;52726;48.852;9.152;2023-09-12T04:17:21;17.26;88.70
65972;SHT31;52726;48.852;9.152;2023-09-12T04:19:46;17.26;88.55
65972;SHT31;52726;48.852;9.152;2023-09-12T04:22:12;17.29;88.15
65972;SHT31;52726;48.852;9.152;2023-09-12T04:24:37;17.30;88.54
65972;SHT31;52726;48.852;9.152;2023-09-12T04:27:03;17.27;88.33
65972;SHT31;52726;48.852;9.152;2023-09-12T04:29:28;17.30;88.28
65972;SHT31;52726;48.852;9.152;2023-09-12T04:31:54;17.30;88.41
65972;SHT31;52726;48.852;9.152;2023-09-12T04:34:25;17.33;87.97
65972;SHT31;52726;48.852;9.152;2023-09-12T04:36:50;17.33;87.97
65972;SHT31;52726;48.852;9.152;2023-09-12T04:39:16;17.35;88.64
65972;SHT31;52726;48.852;9.152;2023-09-12T04:41:41;17.35;88.45
65972;SHT31;52726;48.852;9.152;2023-09-12T04:44:06;17.36;88.47
65972;SHT31;52726;48.852;9.152;2023-09-12T04:46:32;17.37;87.95
65972;SHT31;52726;48.852;9.152;2023-09-12T04:48:57;17.39;88.14
65972;SHT31;52726;48.852;9.152;2023-09-12T04:51:22;17.39;88.28
65972;SHT31;52726;48.852;9.152;2023-09-12T04:53:47;17.37;88.07
65972;SHT31;52726;48.852;9.152;2023-09-12T04:56:16;17.42;87.89
65972;SHT31;52726;48.852;9.152;2023-09-12T04:58:42;17.43;87.82
65972;SHT31;52726;48.852;9.152;2023-09-12T05:01:07;17.47;87.92
65972;SHT31;52726;48.852;9.152;2023-09-12T05:03:33;17.44;87.48
65972;SHT31;52726;48.852;9.152;2023-09-12T05:05:59;17.47;87.53
65972;SHT31;52726;48.852;9.152;2023-09-12T05:08:24;17.51;87.36
65972;SHT31;52726;48.852;9.152;2023-09-12T05:10:49;17.53;87.46
65972;SHT31;52726;48.852;9.152;2023-09-12T05:13:15;17.57;87.26
65972;SHT31;52726;48.852;9.152;2023-09-12T05:15:41;17.62;87.22
65972;SHT31;52726;48.852;9.152;2023-09-12T05:18:06;17.64;86.59
65972;SHT31;52726;48.852;9.152;2023-09-12T05:20:33;17.71;86.92
65972;SHT31;52726;48.852;9.152;2023-09-12T05:22:58;17.80;86.57
65972;SHT31;52726;48.852;9.152;2023-09-12T05:25:23;17.85;86.35
65972;SHT31;52726;48.852;9.152;2023-09-12T05:27:49;17.88;86.37
65972;SHT31;52726;48.852;9.152;2023-09-12T05:30:14;17.95;85.99
65972;SHT31;52726;48.852;9.152;2023-09-12T05:32:41;18.04;85.49
65972;SHT31;52726;48.852;9.152;2023-09-12T05:35:07;18.09;85.17
65972;SHT31;52726;48.852;9.152;2023-09-12T05:37:32;18.16;85.30
65972;SHT31;52726;48.852;9.152;2023-09-12T05:39:57;18.22;85.02
65972;SHT31;52726;48.852;9.152;2023-09-12T05:42:22;18.28;84.59
65972;SHT31;52726;48.852;9.152;2023-09-12T05:44:48;18.40;84.56
65972;SHT31;52726;48.852;9.152;2023-09-12T05:47:15;18.50;84.33
65972;SHT31;52726;48.852;9.152;2023-09-12T05:49:40;18.60;83.91
65972;SHT31;52726;48.852;9.152;2023-09-12T05:52:05;18.73;83.67
65972;SHT31;52726;48.852;9.152;2023-09-12T05:54:31;18.88;83.68
65972;SHT31;52726;48.852;9.152;2023-09-12T05:56:56;19.04;82.95
65972;SHT31;52726;48.852;9.152;2023-09-12T05:59:21;19.16;82.66
65972;SHT31;52726;48.852;9.152;2023-09-12T06:01:47;19.25;82.47
65972;SHT31;52726;48.852;9.152;2023-09-12T06:04:13;19.36;81.45
65972;SHT31;52726;48.852;9.152;2023-09-12T06:06:39;19.52;80.65
65972;SHT31;52726;48.852;9.152;2023-09-12T06:09:04;19.61;81.15
65972;SHT31;52726;48.852;9.152;2023-09-12T06:11:30;19.76;80.61
65972;SHT31;52726;48.852;9.152;2023-09-12T06:13:56;19.86;80.27
65972;SHT31;52726;48.852;9.152;2023-09-12T06:16:21;19.91;79.73
65972;SHT31;52726;48.852;9.152;2023-09-12T06:18:47;19.91;79.81
65972;SHT31;52726;48.852;9.152;2023-09-12T06:21:13;19.93;79.50
65972;SHT31;52726;48.852;9.152;2023-09-12T06:23:39;19.91;79.68
65972;SHT31;52726;48.852;9.152;2023-09-12T06:26:04;19.94;79.69
65972;SHT31;52726;48.852;9.152;2023-09-12T06:28:30;19.94;79.26
65972;SHT31;52726;48.852;9.152;2023-09-12T06:30:56;20.01;79.43
65972;SHT31;52726;48.852;9.152;2023-09-12T06:33:25;19.97;79.20
65972;SHT31;52726;48.852;9.152;2023-09-12T06:35:52;20.03;78.92
65972;SHT31;52726;48.852;9.152;2023-09-12T06:38:18;20.06;79.75
65972;SHT31;52726;48.852;9.152;2023-09-12T06:40:44;20.04;80.40
65972;SHT31;52726;48.852;9.152;2023-09-12T06:43:09;20.07;79.37
65972;SHT31;52726;48.852;9.152;2023-09-12T06:45:35;20.07;78.99
65972;SHT31;52726;48.852;9.152;2023-09-12T06:48:05;20.16;78.75
65972;SHT31;52726;48.852;9.152;2023-09-12T06:50:30;20.25;78.98
65972;SHT31;52726;48.852;9.152;2023-09-12T06:52:56;20.32;79.45
65972;SHT31;52726;48.852;9.152;2023-09-12T06:55:21;20.44;79.01
65972;SHT31;52726;48.852;9.152;2023-09-12T06:57:46;20.56;78.80
65972;SHT31;52726;48.852;9.152;2023-09-12T07:00:12;20.69;78.42
65972;SHT31;52726;48.852;9.152;2023-09-12T07:02:38;20.83;78.14
65972;SHT31;52726;48.852;9.152;2023-09-12T07:05:04;21.00;78.11
65972;SHT31;52726;48.852;9.152;2023-09-12T07:07:30;21.08;77.07
65972;SHT31;52726;48.852;9.152;2023-09-12T07:09:55;21.23;77.12
65972;SHT31;52726;48.852;9.152;2023-09-12T07:12:21;21.72;76.37
65972;SHT31;52726;48.852;9.152;2023-09-12T07:14:46;21.95;74.94
65972;SHT31;52726;48.852;9.152;2023-09-12T07:17:11;22.44;73.30
65972;SHT31;52726;48.852;9.152;2023-09-12T07:19:37;22.36;74.18
65972;SHT31;52726;48.852;9.152;2023-09-12T07:22:02;22.21;74.14
65972;SHT31;52726;48.852;9.152;2023-09-12T07:24:28;22.09;74.75
65972;SHT31;52726;48.852;9.152;2023-09-12T07:26:53;22.06;74.92
65972;SHT31;52726;48.852;9.152;2023-09-12T07:29:19;22.13;74.77
65972;SHT31;52726;48.852;9.152;2023-09-12T07:31:44;22.24;74.91
65972;SHT31;52726;48.852;9.152;2023-09-12T07:34:10;22.47;73.51
65972;SHT31;52726;48.852;9.152;2023-09-12T07:36:37;22.78;73.89
65972;SHT31;52726;48.852;9.152;2023-09-12T07:39:03;23.67;70.56
65972;SHT31;52726;48.852;9.152;2023-09-12T07:41:29;24.18;69.93
65972;SHT31;52726;48.852;9.152;2023-09-12T07:43:55;25.07;67.31
65972;SHT31;52726;48.852;9.152;2023-09-12T07:46:20;25.96;65.50
65972;SHT31;52726;48.852;9.152;2023-09-12T07:48:45;26.31;63.07
65972;SHT31;52726;48.852;9.152;2023-09-12T07:51:13;26.71;61.65
65972;SHT31;52726;48.852;9.152;2023-09-12T07:53:39;27.16;60.68
65972;SHT31;52726;48.852;9.152;2023-09-12T07:56:04;27.86;60.73
65972;SHT31;52726;48.852;9.152;2023-09-12T07:58:30;27.24;60.67
65972;SHT31;52726;48.852;9.152;2023-09-12T08:00:55;26.69;61.36
65972;SHT31;52726;48.852;9.152;2023-09-12T08:03:20;26.30;62.35
65972;SHT31;52726;48.852;9.152;2023-09-12T08:05:55;26.37;63.84
65972;SHT31;52726;48.852;9.152;2023-09-12T08:08:20;26.34;63.14
65972;SHT31;52726;48.852;9.152;2023-09-12T08:10:46;26.45;61.70
65972;SHT31;52726;48.852;9.152;2023-09-12T08:13:11;26.23;63.53
65972;SHT31;52726;48.852;9.152;2023-09-12T08:15:36;25.83;63.44
65972;SHT31;52726;48.852;9.152;2023-09-12T08:18:02;25.45;64.60
65972;SHT31;52726;48.852;9.152;2023-09-12T08:20:27;25.18;65.03
65972;SHT31;52726;48.852;9.152;2023-09-12T08:22:53;25.01;66.86
65972;SHT31;52726;48.852;9.152;2023-09-12T08:25:18;25.01;66.79
65972;SHT31;52726;48.852;9.152;2023-09-12T08:27:43;25.38;65.73
65972;SHT31;52726;48.852;9.152;2023-09-12T08:30:10;25.15;64.97
65972;SHT31;52726;48.852;9.152;2023-09-12T08:32:36;25.10;65.57
65972;SHT31;52726;48.852;9.152;2023-09-12T08:35:04;25.10;65.39
65972;SHT31;52726;48.852;9.152;2023-09-12T08:37:30;25.38;64.89
65972;SHT31;52726;48.852;9.152;2023-09-12T08:39:55;25.45;63.03
65972;SHT31;52726;48.852;9.152;2023-09-12T08:42:26;25.22;64.16
65972;SHT31;52726;48.852;9.152;2023-09-12T08:44:52;25.86;64.15
65972;SHT31;52726;48.852;9.152;2023-09-12T08:47:19;26.51;64.29
65972;SHT31;52726;48.852;9.152;2023-09-12T08:49:47;27.72;61.82
65972;SHT31;52726;48.852;9.152;2023-09-12T08:52:13;28.58;59.50
65972;SHT31;52726;48.852;9.152;2023-09-12T08:54:38;29.02;56.86
65972;SHT31;52726;48.852;9.152;2023-09-12T08:57:05;28.87;55.20
65972;SHT31;52726;48.852;9.152;2023-09-12T08:59:31;29.53;54.77
65972;SHT31;52726;48.852;9.152;2023-09-12T09:01:58;30.04;54.30
65972;SHT31;52726;48.852;9.152;2023-09-12T09:04:25;30.21;55.09
65972;SHT31;52726;48.852;9.152;2023-09-12T09:06:53;30.72;53.52
65972;SHT31;52726;48.852;9.152;2023-09-12T09:09:21;30.57;50.30
65972;SHT31;52726;48.852;9.152;2023-09-12T09:11:46;30.73;50.84
65972;SHT31;52726;48.852;9.152;2023-09-12T09:14:11;30.73;50.58
65972;SHT31;52726;48.852;9.152;2023-09-12T09:16:36;30.66;50.92
65972;SHT31;52726;48.852;9.152;2023-09-12T09:19:04;30.17;50.82
65972;SHT31;52726;48.852;9.152;2023-09-12T09:21:35;30.32;49.49
65972;SHT31;52726;48.852;9.152;2023-09-12T09:24:12;29.80;50.86
65972;SHT31;52726;48.852;9.152;2023-09-12T09:26:51;29.96;53.89
65972;SHT31;52726;48.852;9.152;2023-09-12T09:29:19;30.59;52.29
65972;SHT31;52726;48.852;9.152;2023-09-12T09:31:47;31.04;49.96
65972;SHT31;52726;48.852;9.152;2023-09-12T09:34:21;31.35;49.99
65972;SHT31;52726;48.852;9.152;2023-09-12T09:36:48;31.24;50.52
65972;SHT31;52726;48.852;9.152;2023-09-12T09:39:14;31.52;47.37
65972;SHT31;52726;48.852;9.152;2023-09-12T09:41:40;31.37;47.02
65972;SHT31;52726;48.852;9.152;2023-09-12T09:44:09;30.77;47.42
65972;SHT31;52726;48.852;9.152;2023-09-12T09:46:36;30.46;48.30
65972;SHT31;52726;48.852;9.152;2023-09-12T09:49:02;30.46;51.22
65972;SHT31;52726;48.852;9.152;2023-09-12T09:51:29;30.31;49.24
65972;SHT31;52726;48.852;9.152;2023-09-12T09:53:55;30.14;49.29
65972;SHT31;52726;48.852;9.152;2023-09-12T09:56:24;29.98;52.45
65972;SHT31;52726;48.852;9.152;2023-09-12T09:58:51;29.67;50.76
65972;SHT31;52726;48.852;9.152;2023-09-12T10:03:47;30.04;49.65
65972;SHT31;52726;48.852;9.152;2023-09-12T10:06:15;29.76;50.44
65972;SHT31;52726;48.852;9.152;2023-09-12T10:08:43;29.84;49.78
65972;SHT31;52726;48.852;9.152;2023-09-12T10:11:10;30.05;49.67
65972;SHT31;52726;48.852;9.152;2023-09-12T10:13:36;30.24;50.03
65972;SHT31;52726;48.852;9.152;2023-09-12T10:16:02;30.32;50.18
65972;SHT31;52726;48.852;9.152;2023-09-12T10:18:35;29.70;50.67
65972;SHT31;52726;48.852;9.152;2023-09-12T10:21:09;29.57;49.79
65972;SHT31;52726;48.852;9.152;2023-09-12T10:23:44;29.56;50.83
65972;SHT31;52726;48.852;9.152;2023-09-12T10:26:12;29.81;48.53
65972;SHT31;52726;48.852;9.152;2023-09-12T10:28:40;29.96;50.01
65972;SHT31;52726;48.852;9.152;2023-09-12T10:31:08;30.08;50.14
65972;SHT31;52726;48.852;9.152;2023-09-12T10:33:34;30.15;51.60
65972;SHT31;52726;48.852;9.152;2023-09-12T10:36:05;29.71;51.07
65972;SHT31;52726;48.852;9.152;2023-09-12T10:38:32;29.70;51.30
65972;SHT31;52726;48.852;9.152;2023-09-12T10:41:00;29.74;52.84
65972;SHT31;52726;48.852;9.152;2023-09-12T10:43:26;30.35;49.06
65972;SHT31;52726;48.852;9.152;2023-09-12T10:45:51;30.46;50.96
65972;SHT31;52726;48.852;9.152;2023-09-12T10:48:17;30.18;50.05
65972;SHT31;52726;48.852;9.152;2023-09-12T10:50:43;29.85;51.41
65972;SHT31;52726;48.852;9.152;2023-09-12T10:53:15;29.66;48.93
65972;SHT31;52726;48.852;9.152;2023-09-12T10:55:58;29.64;49.51
65972;SHT31;52726;48.852;9.152;2023-09-12T10:58:24;30.11;49.81
65972;SHT31;52726;48.852;9.152;2023-09-12T11:01:21;30.33;47.38
65972;SHT31;52726;48.852;9.152;2023-09-12T11:03:47;30.27;48.09
65972;SHT31;52726;48.852;9.152;2023-09-12T11:06:20;30.38;47.42
65972;SHT31;52726;48.852;9.152;2023-09-12T11:11:49;30.62;45.18
65972;SHT31;52726;48.852;9.152;2023-09-12T11:14:19;30.56;46.57
65972;SHT31;52726;48.852;9.152;2023-09-12T11:19:43;30.46;47.98
65972;SHT31;52726;48.852;9.152;2023-09-12T11:24:47;30.31;46.36
65972;SHT31;52726;48.852;9.152;2023-09-12T11:27:12;30.29;45.28
65972;SHT31;52726;48.852;9.152;2023-09-12T11:29:39;30.15;46.98
65972;SHT31;52726;48.852;9.152;2023-09-12T11:32:06;29.76;48.00
65972;SHT31;52726;48.852;9.152;2023-09-12T11:34:41;29.90;47.11
65972;SHT31;52726;48.852;9.152;2023-09-12T11:37:07;29.77;48.62
65972;SHT31;52726;48.852;9.152;2023-09-12T11:39:34;29.80;48.96
65972;SHT31;52726;48.852;9.152;2023-09-12T11:42:01;29.76;51.02
65972;SHT31;52726;48.852;9.152;2023-09-12T11:44:28;29.69;50.57
65972;SHT31;52726;48.852;9.152;2023-09-12T11:46:54;29.46;50.27
65972;SHT31;52726;48.852;9.152;2023-09-12T11:49:20;29.63;50.91
65972;SHT31;52726;48.852;9.152;2023-09-12T11:51:50;29.59;49.07
65972;SHT31;52726;48.852;9.152;2023-09-12T11:54:20;29.46;49.87
65972;SHT31;52726;48.852;9.152;2023-09-12T11:56:47;29.64;50.74
65972;SHT31;52726;48.852;9.152;2023-09-12T11:59:14;29.67;49.98
65972;SHT31;52726;48.852;9.152;2023-09-12T12:01:40;29.81;49.10
65972;SHT31;52726;48.852;9.152;2023-09-12T12:04:05;29.64;50.74
65972;SHT31;52726;48.852;9.152;2023-09-12T12:06:32;29.77;50.80
65972;SHT31;52726;48.852;9.152;2023-09-12T12:08:58;30.04;49.10
65972;SHT31;52726;48.852;9.152;2023-09-12T12:11:27;30.15;48.23
65972;SHT31;52726;48.852;9.152;2023-09-12T12:13:53;30.17;47.91
65972;SHT31;52726;48.852;9.152;2023-09-12T12:16:18;30.10;50.78
65972;SHT31;52726;48.852;9.152;2023-09-12T12:18:44;30.18;48.10
65972;SHT31;52726;48.852;9.152;2023-09-12T12:21:09;30.21;48.45
65972;SHT31;52726;48.852;9.152;2023-09-12T12:23:35;30.10;50.57
65972;SHT31;52726;48.852;9.152;2023-09-12T12:26:05;30.24;47.78
65972;SHT31;52726;48.852;9.152;2023-09-12T12:28:34;30.27;49.57
65972;SHT31;52726;48.852;9.152;2023-09-12T12:31:00;30.21;49.58
65972;SHT31;52726;48.852;9.152;2023-09-12T12:33:25;30.36;48.12
65972;SHT31;52726;48.852;9.152;2023-09-12T12:35:59;30.33;47.47
65972;SHT31;52726;48.852;9.152;2023-09-12T12:38:25;30.02;49.77
65972;SHT31;52726;48.852;9.152;2023-09-12T12:40:50;30.22;47.51
65972;SHT31;52726;48.852;9.152;2023-09-12T12:43:17;30.28;50.22
65972;SHT31;52726;48.852;9.152;2023-09-12T12:45:57;30.10;48.92
65972;SHT31;52726;48.852;9.152;2023-09-12T12:48:34;30.27;48.48
65972;SHT31;52726;48.852;9.152;2023-09-12T12:51:01;30.35;48.20
65972;SHT31;52726;48.852;9.152;2023-09-12T12:53:41;30.32;48.17
65972;SHT31;52726;48.852;9.152;2023-09-12T12:56:07;30.45;47.90
65972;SHT31;52726;48.852;9.152;2023-09-12T12:58:33;30.46;46.82
65972;SHT31;52726;48.852;9.152;2023-09-12T13:00:58;30.32;48.27
65972;SHT31;52726;48.852;9.152;2023-09-12T13:03:23;30.15;50.20
65972;SHT31;52726;48.852;9.152;2023-09-12T13:05:49;30.08;50.56
65972;SHT31;52726;48.852;9.152;2023-09-12T13:08:14;30.01;49.78
65972;SHT31;52726;48.852;9.152;2023-09-12T13:10:39;30.19;47.11
65972;SHT31;52726;48.852;9.152;2023-09-12T13:13:07;30.10;48.56
65972;SHT31;52726;48.852;9.152;2023-09-12T13:15:33;30.01;49.86
65972;SHT31;52726;48.852;9.152;2023-09-12T13:17:58;29.83;50.50
65972;SHT31;52726;48.852;9.152;2023-09-12T13:20:23;29.70;50.59
65972;SHT31;52726;48.852;9.152;2023-09-12T13:22:49;29.67;50.18
65972;SHT31;52726;48.852;9.152;2023-09-12T13:25:14;29.77;51.74
65972;SHT31;52726;48.852;9.152;2023-09-12T13:27:40;30.02;50.19
65972;SHT31;52726;48.852;9.152;2023-09-12T13:30:06;30.18;48.38
65972;SHT31;52726;48.852;9.152;2023-09-12T13:32:31;30.28;47.71
65972;SHT31;52726;48.852;9.152;2023-09-12T13:34:58;30.35;49.88
65972;SHT31;52726;48.852;9.152;2023-09-12T13:37:23;30.43;47.31
65972;SHT31;52726;48.852;9.152;2023-09-12T13:39:49;30.53;50.03
65972;SHT31;52726;48.852;9.152;2023-09-12T13:42:16;30.56;49.98
65972;SHT31;52726;48.852;9.152;2023-09-12T13:44:48;30.48;47.99
65972;SHT31;52726;48.852;9.152;2023-09-12T13:47:13;30.29;50.38
65972;SHT31;52726;48.852;9.152;2023-09-12T13:49:38;30.38;50.54
65972;SHT31;52726;48.852;9.152;2023-09-12T13:52:04;30.48;50.83
65972;SHT31;52726;48.852;9.152;2023-09-12T13:54:29;30.53;50.50
65972;SHT31;52726;48.852;9.152;2023-09-12T13:56:55;30.51;49.92
65972;SHT31;52726;48.852;9.152;2023-09-12T13:59:20;30.39;49.30
65972;SHT31;52726;48.852;9.152;2023-09-12T14:01:46;30.28;49.97
65972;SHT31;52726;48.852;9.152;2023-09-12T14:04:11;30.25;51.82
65972;SHT31;52726;48.852;9.152;2023-09-12T14:06:38;30.33;50.86
65972;SHT31;52726;48.852;9.152;2023-09-12T14:09:04;30.14;50.27
65972;SHT31;52726;48.852;9.152;2023-09-12T14:11:29;30.22;50.66
65972;SHT31;52726;48.852;9.152;2023-09-12T14:13:54;30.32;50.42
65972;SHT31;52726;48.852;9.152;2023-09-12T14:16:20;30.35;49.38
65972;SHT31;52726;48.852;9.152;2023-09-12T14:18:45;30.42;50.21
65972;SHT31;52726;48.852;9.152;2023-09-12T14:21:10;30.51;50.56
65972;SHT31;52726;48.852;9.152;2023-09-12T14:23:36;30.43;52.18
65972;SHT31;52726;48.852;9.152;2023-09-12T14:26:01;30.55;51.24
65972;SHT31;52726;48.852;9.152;2023-09-12T14:28:26;30.29;49.82
65972;SHT31;52726;48.852;9.152;2023-09-12T14:30:53;30.10;49.01
65972;SHT31;52726;48.852;9.152;2023-09-12T14:33:19;29.98;52.15
65972;SHT31;52726;48.852;9.152;2023-09-12T14:35:44;29.80;52.06
65972;SHT31;52726;48.852;9.152;2023-09-12T14:38:10;29.69;51.92
65972;SHT31;52726;48.852;9.152;2023-09-12T14:40:35;29.42;51.00
65972;SHT31;52726;48.852;9.152;2023-09-12T14:43:01;29.36;52.89
65972;SHT31;52726;48.852;9.152;2023-09-12T14:45:28;29.27;53.20
65972;SHT31;52726;48.852;9.152;2023-09-12T14:47:53;29.19;52.32
65972;SHT31;52726;48.852;9.152;2023-09-12T14:50:21;29.14;51.51
65972;SHT31;52726;48.852;9.152;2023-09-12T14:52:48;29.18;51.31
65972;SHT31;52726;48.852;9.152;2023-09-12T14:55:14;29.18;51.61
65972;SHT31;52726;48.852;9.152;2023-09-12T14:57:41;29.22;50.66
65972;SHT31;52726;48.852;9.152;2023-09-12T15:00:06;29.26;52.59
65972;SHT31;52726;48.852;9.152;2023-09-12T15:02:32;29.23;50.47
65972;SHT31;52726;48.852;9.152;2023-09-12T15:04:59;29.25;53.79
65972;SHT31;52726;48.852;9.152;2023-09-12T15:07:24;29.32;54.31
65972;SHT31;52726;48.852;9.152;2023-09-12T15:09:50;29.27;50.32
65972;SHT31;52726;48.852;9.152;2023-09-12T15:12:15;29.37;52.29
65972;SHT31;52726;48.852;9.152;2023-09-12T15:14:40;29.45;49.06
65972;SHT31;52726;48.852;9.152;2023-09-12T15:17:06;29.54;49.37
65972;SHT31;52726;48.852;9.152;2023-09-12T15:19:31;29.56;51.51
65972;SHT31;52726;48.852;9.152;2023-09-12T15:21:56;29.43;50.74
65972;SHT31;52726;48.852;9.152;2023-09-12T15:24:22;29.36;53.41
65972;SHT31;52726;48.852;9.152;2023-09-12T15:26:47;29.37;52.74
65972;SHT31;52726;48.852;9.152;2023-09-12T15:29:12;29.39;51.18
65972;SHT31;52726;48.852;9.152;2023-09-12T15:31:38;29.23;53.30
65972;SHT31;52726;48.852;9.152;2023-09-12T15:34:03;29.20;53.32
65972;SHT31;52726;48.852;9.152;2023-09-12T15:36:36;29.16;53.36
65972;SHT31;52726;48.852;9.152;2023-09-12T15:39:04;29.23;52.52
65972;SHT31;52726;48.852;9.152;2023-09-12T15:41:30;29.29;50.39